Time;durP1;ratioP1;P1;durP2;ratioP2;P2;SDS_P1;SDS_P2;PMS_P1;PMS_P2;Temp;Humidity;BMP_temperature;BMP_pressure;BME280_temperature;BME280_humidity;BME280_pressure;Samples;Min_cycle;Max_cycle;Signal;HPM_P1;HPM_P2
2021/10/23 00:01:41;;;;;;;6.65;2.25;;;8.50;95.10;;;;;;5051356;28;20128;-80
2021/10/23 00:04:08;;;;;;;8.55;2.10;;;8.50;95.40;;;;;;5051111;28;20128;-80
2021/10/23 00:06:35;;;;;;;6.03;1.92;;;8.50;95.30;;;;;;5051574;28;20136;-80
2021/10/23 00:09:04;;;;;;;4.32;1.90;;;8.50;95.30;;;;;;5051580;28;20137;-79
2021/10/23 00:11:31;;;;;;;8.57;2.33;;;8.50;95.30;;;;;;5051650;28;20132;-80
2021/10/23 00:13:58;;;;;;;5.35;1.83;;;8.40;95.30;;;;;;5053700;28;20132;-81
2021/10/23 00:16:25;;;;;;;5.30;2.00;;;8.40;95.40;;;;;;5055318;28;20131;-81
2021/10/23 00:18:52;;;;;;;4.95;1.80;;;8.40;95.40;;;;;;5054616;28;20140;-79
2021/10/23 00:21:19;;;;;;;7.00;1.67;;;8.40;95.40;;;;;;5055212;28;20136;-78
2021/10/23 00:23:46;;;;;;;5.20;1.77;;;8.40;95.40;;;;;;5055230;28;20084;-80
2021/10/23 00:26:15;;;;;;;7.45;2.08;;;8.40;95.30;;;;;;5055276;28;20140;-81
2021/10/23 00:28:42;;;;;;;5.40;1.77;;;8.30;95.30;;;;;;5039325;28;20153;-80
2021/10/23 00:31:10;;;;;;;4.72;1.75;;;8.40;95.40;;;;;;5055138;28;20088;-81
2021/10/23 00:33:37;;;;;;;4.20;1.80;;;8.40;95.40;;;;;;5055223;28;20045;-81
2021/10/23 00:36:05;;;;;;;6.07;2.05;;;8.30;95.40;;;;;;5055080;28;20392;-81
2021/10/23 00:38:32;;;;;;;5.35;1.77;;;8.40;95.50;;;;;;5054738;28;20136;-81
2021/10/23 00:40:59;;;;;;;5.85;1.80;;;8.40;95.70;;;;;;5055200;28;20049;-80
2021/10/23 00:43:28;;;;;;;8.18;1.80;;;8.40;95.50;;;;;;5054296;28;20156;-82
2021/10/23 00:45:55;;;;;;;5.50;1.80;;;8.40;95.50;;;;;;5054739;28;20053;-78
2021/10/23 00:48:22;;;;;;;5.05;1.50;;;8.40;95.50;;;;;;5054522;28;20139;-78
2021/10/23 00:50:49;;;;;;;6.28;1.90;;;8.40;95.50;;;;;;5054860;28;20132;-79
2021/10/23 00:53:16;;;;;;;5.03;1.60;;;8.40;95.50;;;;;;5053731;28;20140;-79
2021/10/23 00:55:44;;;;;;;6.18;1.85;;;8.40;95.50;;;;;;5054796;28;20139;-82
2021/10/23 00:58:11;;;;;;;6.05;1.83;;;8.40;95.50;;;;;;5054405;28;20143;-80
2021/10/23 01:00:39;;;;;;;8.65;2.20;;;8.40;95.40;;;;;;5054146;28;20127;-81
2021/10/23 01:03:07;;;;;;;4.82;1.45;;;8.50;95.40;;;;;;5054412;28;20131;-79
2021/10/23 01:05:34;;;;;;;7.88;1.60;;;8.40;95.60;;;;;;5054561;28;20140;-81
2021/10/23 01:08:01;;;;;;;5.45;1.88;;;8.40;95.30;;;;;;5054366;28;20099;-80
2021/10/23 01:10:29;;;;;;;7.50;2.67;;;8.40;95.30;;;;;;5053748;28;20533;-80
2021/10/23 01:12:56;;;;;;;7.18;1.80;;;8.50;95.30;;;;;;5054383;28;20056;-80
2021/10/23 01:15:26;;;;;;;6.22;1.70;;;8.50;95.30;;;;;;5059024;28;20440;-80
2021/10/23 01:17:57;;;;;;;5.38;1.67;;;8.50;95.30;;;;;;5060574;28;20137;-79
2021/10/23 01:20:27;;;;;;;6.45;1.70;;;8.50;95.30;;;;;;5070588;28;20076;-79
2021/10/23 01:22:55;;;;;;;6.18;1.67;;;8.50;95.30;;;;;;5054220;28;20178;-79
2021/10/23 01:25:25;;;;;;;4.97;1.48;;;8.50;95.30;;;;;;5052849;28;20128;-80
2021/10/23 01:27:53;;;;;;;5.47;1.60;;;8.60;95.30;;;;;;5053576;28;20129;-80
2021/10/23 01:30:22;;;;;;;6.28;1.88;;;8.60;95.20;;;;;;5053820;28;20131;-78
2021/10/23 01:32:49;;;;;;;5.18;1.60;;;8.60;95.30;;;;;;5053839;28;20414;-80
2021/10/23 01:35:16;;;;;;;5.15;1.67;;;8.70;95.30;;;;;;5053881;28;20137;-80
2021/10/23 01:37:47;;;;;;;5.57;1.67;;;8.60;95.20;;;;;;5054152;28;20087;-80
2021/10/23 01:40:17;;;;;;;5.68;1.45;;;8.70;95.20;;;;;;5053085;28;20137;-81
2021/10/23 01:42:45;;;;;;;4.55;1.30;;;8.70;95.50;;;;;;5046166;28;20454;-78
2021/10/23 01:45:13;;;;;;;6.18;1.67;;;8.70;95.30;;;;;;5053830;28;20128;-79
2021/10/23 01:47:41;;;;;;;6.43;1.70;;;8.70;95.30;;;;;;5053799;28;20139;-80
2021/10/23 01:50:15;;;;;;;5.57;1.50;;;8.70;95.30;;;;;;5053853;28;20124;-79
2021/10/23 01:52:44;;;;;;;5.88;1.50;;;8.70;95.30;;;;;;5053849;28;20051;-80
2021/10/23 01:55:12;;;;;;;5.68;1.50;;;8.70;95.30;;;;;;5052063;28;20056;-80
2021/10/23 01:57:40;;;;;;;7.10;1.65;;;8.70;95.20;;;;;;5052839;28;20661;-79
2021/10/23 02:00:10;;;;;;;5.47;1.48;;;8.80;95.30;;;;;;5053301;28;20495;-81
2021/10/23 02:02:37;;;;;;;4.45;1.63;;;8.80;95.30;;;;;;5053409;28;20099;-78
2021/10/23 02:05:06;;;;;;;4.30;1.60;;;8.80;95.30;;;;;;5053536;28;20136;-80
2021/10/23 02:07:33;;;;;;;5.05;1.40;;;8.80;95.30;;;;;;5052354;28;20127;-80
2021/10/23 02:10:01;;;;;;;5.45;1.60;;;8.80;95.40;;;;;;5052702;28;20139;-80
2021/10/23 02:12:29;;;;;;;5.35;1.40;;;8.80;95.40;;;;;;5053245;28;20084;-79
2021/10/23 02:14:56;;;;;;;5.63;1.50;;;8.80;95.50;;;;;;5053576;28;20123;-81
2021/10/23 02:17:23;;;;;;;6.45;1.40;;;8.80;95.60;;;;;;5052957;28;20131;-80
2021/10/23 02:19:50;;;;;;;6.38;1.40;;;8.80;95.60;;;;;;5053358;28;20080;-80
2021/10/23 02:22:17;;;;;;;3.95;1.25;;;8.80;95.60;;;;;;5053235;28;20120;-80
2021/10/23 02:24:44;;;;;;;3.90;1.20;;;8.80;95.90;;;;;;5052872;28;20089;-80
2021/10/23 02:27:12;;;;;;;5.68;1.50;;;8.90;95.70;;;;;;5053260;28;20131;-80
2021/10/23 02:29:39;;;;;;;4.20;1.30;;;8.80;95.60;;;;;;5053235;28;20804;-80
2021/10/23 02:32:07;;;;;;;5.80;1.50;;;8.80;95.70;;;;;;5053100;28;20088;-80
2021/10/23 02:34:34;;;;;;;4.68;1.35;;;8.80;95.70;;;;;;5052821;28;20087;-81
2021/10/23 02:37:01;;;;;;;4.20;1.50;;;8.90;95.70;;;;;;5052053;28;20086;-80
2021/10/23 02:39:28;;;;;;;5.90;1.70;;;8.90;95.70;;;;;;5052259;28;20132;-80
2021/10/23 02:41:55;;;;;;;3.92;1.30;;;8.90;96.00;;;;;;5052924;28;20068;-80
2021/10/23 02:44:24;;;;;;;5.63;1.40;;;8.90;95.80;;;;;;5052753;28;20461;-79
2021/10/23 02:46:51;;;;;;;7.00;1.55;;;8.90;95.80;;;;;;5052981;28;20063;-81
2021/10/23 02:49:18;;;;;;;6.88;1.50;;;8.90;95.80;;;;;;5052990;28;20140;-78
2021/10/23 02:51:45;;;;;;;4.35;1.52;;;8.90;95.80;;;;;;5054213;28;20044;-79
2021/10/23 02:54:12;;;;;;;5.95;1.42;;;8.90;95.80;;;;;;5053247;28;20136;-79
2021/10/23 02:56:40;;;;;;;7.03;1.60;;;8.80;95.90;;;;;;5054227;28;20132;-80
2021/10/23 02:59:07;;;;;;;6.22;1.50;;;8.90;95.90;;;;;;5054246;28;20052;-81
2021/10/23 03:01:36;;;;;;;4.90;1.77;;;8.90;96.00;;;;;;5053335;28;20083;-80
2021/10/23 03:04:04;;;;;;;4.32;1.65;;;8.90;96.00;;;;;;5050674;28;20135;-78
2021/10/23 03:06:32;;;;;;;5.35;1.33;;;8.90;95.90;;;;;;5049157;28;20116;-78
2021/10/23 03:08:59;;;;;;;4.05;1.30;;;8.80;95.90;;;;;;5047687;28;20049;-79
2021/10/23 03:11:26;;;;;;;5.97;1.48;;;8.90;96.00;;;;;;5049392;28;20097;-79
2021/10/23 03:13:55;;;;;;;6.03;1.40;;;8.90;96.00;;;;;;5048736;28;20135;-79
2021/10/23 03:16:22;;;;;;;7.30;1.60;;;8.80;96.00;;;;;;5048832;28;20057;-82
2021/10/23 03:18:51;;;;;;;6.15;1.60;;;8.80;96.10;;;;;;5049227;28;20144;-80
2021/10/23 03:21:19;;;;;;;4.53;1.50;;;8.80;96.10;;;;;;5048475;28;20156;-79
2021/10/23 03:23:46;;;;;;;5.53;1.48;;;8.80;96.10;;;;;;5048722;28;20498;-81
2021/10/23 03:26:13;;;;;;;8.63;1.67;;;8.80;96.20;;;;;;5048169;28;20136;-80
2021/10/23 03:28:40;;;;;;;5.82;1.40;;;8.80;96.20;;;;;;5048714;28;20049;-81
2021/10/23 03:31:07;;;;;;;3.72;1.40;;;8.80;96.20;;;;;;5048946;28;20157;-80
2021/10/23 03:33:35;;;;;;;5.05;1.42;;;8.80;96.20;;;;;;5047662;28;20140;-79
2021/10/23 03:36:04;;;;;;;5.13;1.40;;;8.80;96.20;;;;;;5048266;28;20166;-80
2021/10/23 03:38:31;;;;;;;5.10;1.42;;;8.80;96.30;;;;;;5048009;28;20152;-81
2021/10/23 03:40:58;;;;;;;5.13;1.48;;;8.90;96.30;;;;;;5047928;28;20136;-80
2021/10/23 03:43:25;;;;;;;4.70;1.73;;;8.90;96.30;;;;;;5047876;28;20132;-79
2021/10/23 03:45:52;;;;;;;6.43;1.58;;;8.90;96.30;;;;;;5047965;28;20137;-81
2021/10/23 03:48:20;;;;;;;6.18;1.70;;;8.90;96.20;;;;;;5049726;28;20136;-80
2021/10/23 03:50:47;;;;;;;5.07;1.40;;;8.90;96.20;;;;;;5052000;28;20494;-79
2021/10/23 03:53:15;;;;;;;4.28;1.45;;;8.90;96.20;;;;;;5052265;28;20164;-80
2021/10/23 03:55:42;;;;;;;6.03;1.80;;;8.90;96.30;;;;;;5052049;28;20134;-78
2021/10/23 03:58:10;;;;;;;5.40;1.80;;;8.90;96.30;;;;;;5052434;28;20578;-80
2021/10/23 04:00:37;;;;;;;5.78;1.50;;;8.80;96.30;;;;;;5052392;28;20083;-80
2021/10/23 04:03:04;;;;;;;3.63;1.30;;;8.90;96.40;;;;;;5055566;28;20473;-78
2021/10/23 04:05:31;;;;;;;5.35;1.30;;;8.90;96.40;;;;;;5055319;28;20059;-78
2021/10/23 04:07:58;;;;;;;5.85;1.65;;;8.90;96.40;;;;;;5054844;28;20122;-79
2021/10/23 04:10:27;;;;;;;5.22;1.42;;;8.80;96.50;;;;;;5054749;28;20124;-80
2021/10/23 04:12:54;;;;;;;4.75;1.75;;;8.80;96.50;;;;;;5055271;28;20167;-80
2021/10/23 04:15:21;;;;;;;4.05;1.40;;;8.90;96.60;;;;;;5055012;28;20685;-80
2021/10/23 04:17:48;;;;;;;3.88;1.40;;;8.90;96.60;;;;;;5055313;28;20148;-79
2021/10/23 04:20:15;;;;;;;4.97;1.60;;;8.90;96.60;;;;;;5055013;28;20076;-82
2021/10/23 04:22:42;;;;;;;8.00;2.00;;;8.90;96.60;;;;;;5055050;28;20132;-79
2021/10/23 04:25:10;;;;;;;5.43;1.92;;;8.90;96.60;;;;;;5054882;28;20135;-80
2021/10/23 04:27:38;;;;;;;8.15;1.77;;;8.90;96.50;;;;;;5054448;28;20141;-79
2021/10/23 04:30:07;;;;;;;5.22;1.30;;;8.90;96.60;;;;;;5055416;28;20140;-79
2021/10/23 04:32:34;;;;;;;6.85;1.30;;;8.90;96.60;;;;;;5056278;28;20136;-78
2021/10/23 04:35:01;;;;;;;5.80;1.80;;;8.90;96.60;;;;;;5057242;28;20144;-78
2021/10/23 04:37:28;;;;;;;6.60;1.60;;;8.90;96.60;;;;;;5072395;28;20136;-79
2021/10/23 04:39:55;;;;;;;5.75;1.63;;;8.90;96.60;;;;;;5055863;28;20141;-79
2021/10/23 04:42:22;;;;;;;5.10;1.52;;;8.90;96.70;;;;;;5055014;28;20144;-78
2021/10/23 04:44:50;;;;;;;6.22;1.83;;;8.90;96.70;;;;;;5056362;28;20569;-81
2021/10/23 04:47:18;;;;;;;5.45;1.90;;;8.90;96.70;;;;;;5055634;28;20131;-81
2021/10/23 04:49:45;;;;;;;4.85;1.90;;;8.90;96.70;;;;;;5054752;28;20123;-80
2021/10/23 04:52:12;;;;;;;5.68;1.92;;;8.90;97.00;;;;;;5054401;28;20076;-80
2021/10/23 04:54:39;;;;;;;7.13;1.80;;;8.90;96.70;;;;;;5054554;28;20135;-79
2021/10/23 04:57:06;;;;;;;8.05;2.20;;;8.90;96.70;;;;;;5054371;28;20135;-80
2021/10/23 04:59:33;;;;;;;5.95;2.28;;;8.90;96.80;;;;;;5053429;28;20414;-81
2021/10/23 05:02:02;;;;;;;6.07;1.80;;;8.90;96.90;;;;;;5054114;28;20164;-80
2021/10/23 05:04:29;;;;;;;3.70;1.60;;;8.90;96.90;;;;;;5053801;28;20162;-78
2021/10/23 05:06:56;;;;;;;6.20;1.73;;;8.90;96.90;;;;;;5053680;28;20132;-80
2021/10/23 05:09:23;;;;;;;6.15;1.80;;;8.90;97.00;;;;;;5054278;28;20439;-80
2021/10/23 05:11:50;;;;;;;5.00;1.52;;;8.90;97.10;;;;;;5054007;28;20136;-80
2021/10/23 05:14:18;;;;;;;5.50;1.67;;;8.90;97.10;;;;;;5054559;28;20048;-82
2021/10/23 05:16:45;;;;;;;5.55;1.70;;;8.90;97.20;;;;;;5054450;28;20517;-81
2021/10/23 05:19:14;;;;;;;4.40;1.60;;;8.80;97.20;;;;;;5063071;28;20128;-82
2021/10/23 05:21:41;;;;;;;4.90;1.65;;;8.80;97.30;;;;;;5054574;28;20139;-82
2021/10/23 05:24:08;;;;;;;4.25;1.55;;;8.90;97.30;;;;;;5054038;28;20148;-81
2021/10/23 05:26:36;;;;;;;4.20;1.50;;;8.90;97.30;;;;;;5051678;28;20129;-79
2021/10/23 05:29:03;;;;;;;4.88;1.73;;;8.90;97.30;;;;;;5053800;28;20066;-79
2021/10/23 05:31:30;;;;;;;5.32;1.40;;;8.90;97.40;;;;;;5049021;28;20143;-81
2021/10/23 05:33:58;;;;;;;6.32;1.77;;;8.90;97.40;;;;;;5040999;28;20053;-79
2021/10/23 05:36:26;;;;;;;4.82;1.60;;;8.90;97.40;;;;;;5039709;28;20068;-78
2021/10/23 05:38:54;;;;;;;4.82;1.70;;;8.90;97.40;;;;;;5034167;28;20124;-77
2021/10/23 05:41:21;;;;;;;5.65;1.70;;;8.90;97.50;;;;;;5034040;28;20132;-79
2021/10/23 05:43:49;;;;;;;6.00;1.58;;;8.90;97.50;;;;;;5034671;28;20144;-78
2021/10/23 05:46:17;;;;;;;5.35;1.35;;;8.90;97.50;;;;;;5046330;28;20041;-85
2021/10/23 05:48:44;;;;;;;4.75;1.63;;;8.90;97.50;;;;;;5046141;28;20053;-83
2021/10/23 05:51:11;;;;;;;4.75;1.30;;;8.90;97.60;;;;;;5038038;28;20167;-82
2021/10/23 05:53:40;;;;;;;4.45;1.50;;;8.90;97.70;;;;;;5042185;28;20567;-83
2021/10/23 05:56:07;;;;;;;4.53;1.60;;;8.90;97.70;;;;;;5055858;28;20128;-86
2021/10/23 05:58:37;;;;;;;5.13;1.48;;;8.90;97.80;;;;;;5036362;28;20140;-86
2021/10/23 06:01:06;;;;;;;5.28;1.42;;;8.90;97.90;;;;;;5038760;28;20487;-86
2021/10/23 06:03:35;;;;;;;5.65;1.95;;;8.90;97.90;;;;;;5045680;28;20045;-87
2021/10/23 06:06:04;;;;;;;4.53;1.70;;;8.90;98.00;;;;;;5046269;28;20053;-85
2021/10/23 06:08:31;;;;;;;4.60;1.52;;;9.00;98.00;;;;;;5040464;28;20092;-84
2021/10/23 06:11:00;;;;;;;6.35;1.50;;;9.00;98.00;;;;;;5048352;28;20073;-84
2021/10/23 06:13:27;;;;;;;4.40;1.35;;;9.00;98.00;;;;;;5044915;28;20136;-85
2021/10/23 06:15:54;;;;;;;3.80;1.55;;;9.00;98.20;;;;;;5034061;28;20071;-84
2021/10/23 06:18:22;;;;;;;4.63;1.65;;;9.00;98.00;;;;;;5046614;28;20073;-85
2021/10/23 06:20:51;;;;;;;4.43;1.50;;;8.90;98.20;;;;;;5053100;28;20044;-87
2021/10/23 06:23:18;;;;;;;3.88;1.42;;;9.00;98.40;;;;;;5034969;28;20048;-88
2021/10/23 06:25:45;;;;;;;5.75;1.92;;;9.00;98.50;;;;;;5042920;28;20120;-86
2021/10/23 06:28:14;;;;;;;4.75;1.40;;;9.00;98.60;;;;;;5042680;28;20481;-86
2021/10/23 06:30:41;;;;;;;6.88;1.80;;;9.00;98.60;;;;;;5054516;28;20132;-87
2021/10/23 06:33:08;;;;;;;5.68;1.80;;;9.10;98.60;;;;;;5054681;28;20080;-84
2021/10/23 06:35:35;;;;;;;5.40;1.80;;;9.10;98.60;;;;;;5054263;28;20124;-88
2021/10/23 06:38:03;;;;;;;3.47;1.45;;;9.10;98.60;;;;;;5054420;28;20071;-87
2021/10/23 06:40:30;;;;;;;4.47;1.80;;;9.20;98.50;;;;;;5054130;28;20053;-85
2021/10/23 06:42:57;;;;;;;6.13;1.70;;;9.20;98.60;;;;;;5054230;28;20132;-84
2021/10/23 06:45:26;;;;;;;5.70;1.80;;;9.20;98.50;;;;;;5054046;28;20052;-84
2021/10/23 06:47:54;;;;;;;7.15;1.90;;;9.20;98.40;;;;;;5053808;28;20155;-85
2021/10/23 06:50:21;;;;;;;3.70;1.50;;;9.20;98.40;;;;;;5053750;28;20049;-84
2021/10/23 06:52:48;;;;;;;5.57;1.90;;;9.20;98.80;;;;;;5053384;28;20140;-82
2021/10/23 06:55:16;;;;;;;7.60;2.30;;;9.30;98.70;;;;;;5052967;28;20048;-85
2021/10/23 06:57:46;;;;;;;4.78;2.15;;;9.30;98.60;;;;;;5053439;28;20192;-87
2021/10/23 07:00:15;;;;;;;6.05;2.25;;;9.30;98.50;;;;;;5054486;28;20613;-88
2021/10/23 07:02:46;;;;;;;5.45;2.20;;;9.40;98.30;;;;;;5053198;28;20704;-88
2021/10/23 07:05:15;;;;;;;5.45;1.63;;;9.40;98.20;;;;;;5052838;28;20435;-86
2021/10/23 07:07:43;;;;;;;6.18;1.88;;;9.40;98.10;;;;;;5042637;28;20095;-85
2021/10/23 07:10:11;;;;;;;4.70;1.65;;;9.40;98.00;;;;;;5054133;28;20123;-87
2021/10/23 07:12:39;;;;;;;7.03;1.80;;;9.40;98.00;;;;;;5053863;28;20071;-85
2021/10/23 07:15:08;;;;;;;5.55;1.85;;;9.50;97.90;;;;;;5053355;28;20490;-83
2021/10/23 07:17:35;;;;;;;4.75;1.67;;;9.50;97.80;;;;;;5053566;28;20478;-84
2021/10/23 07:20:06;;;;;;;4.03;1.52;;;9.50;97.70;;;;;;5053895;28;20476;-81
2021/10/23 07:22:33;;;;;;;6.03;1.90;;;9.50;97.60;;;;;;5052763;28;20076;-82
2021/10/23 07:25:00;;;;;;;5.68;1.70;;;9.50;97.60;;;;;;5052214;28;20128;-80
2021/10/23 07:27:27;;;;;;;4.90;1.60;;;9.50;97.70;;;;;;5051624;28;20144;-84
2021/10/23 07:29:54;;;;;;;6.43;2.00;;;9.60;98.20;;;;;;5052464;28;20434;-80
2021/10/23 07:32:21;;;;;;;4.93;1.60;;;9.70;98.20;;;;;;5051431;28;20132;-82
2021/10/23 07:34:49;;;;;;;4.00;1.65;;;9.70;98.00;;;;;;5051347;28;20137;-82
2021/10/23 07:37:17;;;;;;;5.70;1.80;;;9.70;97.90;;;;;;5052380;28;20143;-84
2021/10/23 07:39:44;;;;;;;5.05;1.80;;;9.80;97.90;;;;;;5050944;28;20136;-80
2021/10/23 07:42:12;;;;;;;4.05;1.65;;;9.80;97.80;;;;;;5052300;28;20444;-82
2021/10/23 07:44:39;;;;;;;6.00;1.90;;;9.90;97.80;;;;;;5051775;28;20065;-83
2021/10/23 07:47:06;;;;;;;5.90;1.60;;;9.90;97.80;;;;;;5052214;28;20144;-80
2021/10/23 07:49:33;;;;;;;5.15;1.90;;;9.90;97.70;;;;;;5051445;28;20567;-80
2021/10/23 07:52:00;;;;;;;4.97;1.90;;;10.00;97.80;;;;;;5050547;28;20140;-79
2021/10/23 07:54:29;;;;;;;4.90;1.92;;;10.00;97.80;;;;;;5064557;28;20147;-81
2021/10/23 07:56:58;;;;;;;5.57;1.77;;;10.00;97.80;;;;;;5059121;28;20475;-79
2021/10/23 07:59:26;;;;;;;6.18;2.15;;;10.10;97.80;;;;;;5067545;28;20502;-80
2021/10/23 08:01:54;;;;;;;4.65;1.75;;;10.10;97.60;;;;;;5051483;28;20048;-80
2021/10/23 08:04:21;;;;;;;5.80;1.90;;;10.20;97.50;;;;;;5052931;28;20087;-81
2021/10/23 08:06:48;;;;;;;32.05;5.15;;;10.10;97.60;;;;;;5052361;28;20567;-82
2021/10/23 08:09:15;;;;;;;218.70;34.67;;;10.20;97.40;;;;;;5052166;28;20092;-80
2021/10/23 08:11:45;;;;;;;95.80;18.90;;;10.20;97.60;;;;;;5051458;28;20474;-79
2021/10/23 08:14:13;;;;;;;62.50;13.05;;;10.30;97.40;;;;;;5051617;28;20128;-80
2021/10/23 08:16:41;;;;;;;95.05;17.38;;;10.30;97.50;;;;;;5052435;28;20124;-81
2021/10/23 08:19:08;;;;;;;75.88;14.70;;;10.40;97.60;;;;;;5052627;28;20136;-80
2021/10/23 08:21:38;;;;;;;21.45;5.30;;;10.50;97.50;;;;;;5051651;28;20045;-82
2021/10/23 08:24:06;;;;;;;8.20;2.70;;;10.50;97.20;;;;;;5051537;28;20080;-83
2021/10/23 08:26:33;;;;;;;5.35;1.90;;;10.60;97.00;;;;;;5050595;28;20136;-82
2021/10/23 08:29:03;;;;;;;6.47;2.40;;;10.60;96.70;;;;;;5049823;28;20160;-86
2021/10/23 08:31:31;;;;;;;7.50;2.30;;;10.60;96.70;;;;;;5054482;28;20127;-87
2021/10/23 08:34:00;;;;;;;5.93;2.30;;;10.60;96.60;;;;;;5055057;28;20065;-87
2021/10/23 08:36:29;;;;;;;6.55;2.20;;;10.60;96.50;;;;;;5062121;28;20041;-85
2021/10/23 08:38:57;;;;;;;6.07;2.40;;;10.60;96.40;;;;;;5064576;28;20068;-88
2021/10/23 08:41:24;;;;;;;6.97;2.47;;;10.60;96.60;;;;;;5057406;28;20633;-82
2021/10/23 08:43:54;;;;;;;5.00;2.10;;;10.60;96.30;;;;;;5056553;28;20049;-86
2021/10/23 08:46:25;;;;;;;5.80;2.00;;;10.60;96.10;;;;;;5056320;28;20198;-87
2021/10/23 08:48:55;;;;;;;5.35;2.00;;;10.60;96.10;;;;;;5058923;28;20080;-85
2021/10/23 08:51:23;;;;;;;4.45;1.65;;;10.60;96.10;;;;;;5058562;28;20124;-89
2021/10/23 08:53:51;;;;;;;5.25;2.20;;;10.60;96.00;;;;;;5056478;28;20049;-87
2021/10/23 08:56:19;;;;;;;4.85;1.67;;;10.60;96.00;;;;;;5056945;28;20084;-88
2021/10/23 08:58:46;;;;;;;5.50;2.40;;;10.60;96.00;;;;;;5055157;28;20060;-86
2021/10/23 09:01:15;;;;;;;5.38;1.98;;;10.60;96.00;;;;;;5053095;28;20136;-88
2021/10/23 09:03:45;;;;;;;6.78;2.08;;;10.60;95.80;;;;;;5054675;28;20073;-87
2021/10/23 09:06:16;;;;;;;7.35;2.08;;;10.60;95.60;;;;;;5056260;28;20478;-89
2021/10/23 09:09:06;;;;;;;7.07;2.10;;;10.60;95.60;;;;;;5054218;28;20143;-89
2021/10/23 09:11:37;;;;;;;6.65;2.10;;;10.50;95.30;;;;;;5054136;28;20103;-87
2021/10/23 09:14:25;;;;;;;4.88;2.00;;;10.50;95.20;;;;;;5036890;28;20406;-89
2021/10/23 09:17:04;;;;;;;5.38;1.95;;;10.50;95.30;;;;;;5047153;28;20041;-88
2021/10/23 09:19:41;;;;;;;5.75;1.70;;;10.50;95.50;;;;;;5054129;28;20669;-86
2021/10/23 09:22:27;;;;;;;5.50;1.83;;;10.60;95.30;;;;;;5053465;28;20049;-89
2021/10/23 09:25:20;;;;;;;7.43;2.03;;;10.60;95.30;;;;;;5047748;28;20052;-87
2021/10/23 09:28:00;;;;;;;6.10;1.80;;;10.60;95.20;;;;;;5038699;28;20164;-87
2021/10/23 09:30:33;;;;;;;7.22;1.83;;;10.60;95.20;;;;;;5064478;28;20068;-86
2021/10/23 09:33:06;;;;;;;6.82;1.75;;;10.60;95.20;;;;;;5033208;28;20069;-87
2021/10/23 09:35:38;;;;;;;6.28;1.80;;;10.60;95.30;;;;;;5033584;28;20045;-87
2021/10/23 09:38:07;;;;;;;4.80;1.85;;;10.70;95.20;;;;;;5040845;28;20083;-86
2021/10/23 09:40:37;;;;;;;5.45;1.80;;;10.70;95.10;;;;;;5054952;28;20084;-88
2021/10/23 09:43:17;;;;;;;5.20;1.70;;;10.70;95.00;;;;;;5058670;28;20079;-88
2021/10/23 09:46:11;;;;;;;5.47;1.80;;;10.80;95.10;;;;;;5051830;28;20053;-89
2021/10/23 09:48:41;;;;;;;6.32;1.88;;;10.80;95.10;;;;;;5053768;28;20045;-87
2021/10/23 09:51:18;;;;;;;5.80;1.60;;;10.80;95.00;;;;;;5053650;28;20073;-89
2021/10/23 09:53:47;;;;;;;5.38;1.33;;;10.90;94.90;;;;;;5053506;28;20083;-88
2021/10/23 09:56:21;;;;;;;4.65;1.48;;;10.90;95.00;;;;;;5053025;28;20572;-88
2021/10/23 09:59:00;;;;;;;4.53;1.40;;;11.00;95.00;;;;;;5049839;28;20049;-89
2021/10/23 10:01:30;;;;;;;5.32;2.25;;;11.00;94.90;;;;;;5052250;28;20122;-88
2021/10/23 10:03:58;;;;;;;6.45;2.88;;;11.10;94.80;;;;;;5052293;28;20049;-89
2021/10/23 10:06:28;;;;;;;7.72;2.40;;;11.10;94.80;;;;;;5053282;28;20049;-89
2021/10/23 10:08:56;;;;;;;7.78;3.38;;;11.10;94.70;;;;;;5050444;28;20540;-89
2021/10/23 10:11:24;;;;;;;7.85;2.42;;;11.20;94.60;;;;;;5051683;28;20076;-88
2021/10/23 10:13:53;;;;;;;6.38;1.83;;;11.30;94.30;;;;;;5050976;28;20084;-88
2021/10/23 10:16:20;;;;;;;5.30;1.52;;;11.30;94.20;;;;;;5052143;28;20463;-88
2021/10/23 10:18:48;;;;;;;6.50;1.70;;;11.30;94.10;;;;;;5052476;28;20131;-88
2021/10/23 10:21:19;;;;;;;4.78;1.50;;;11.40;94.00;;;;;;5052243;28;20056;-87
2021/10/23 10:23:51;;;;;;;5.85;1.77;;;11.30;94.00;;;;;;5052657;28;20049;-89
2021/10/23 10:26:33;;;;;;;4.20;1.42;;;11.40;93.90;;;;;;5052598;28;20049;-89
2021/10/23 10:29:24;;;;;;;3.50;1.50;;;11.40;93.80;;;;;;5052517;28;20057;-88
2021/10/23 10:31:57;;;;;;;3.88;1.63;;;11.40;93.70;;;;;;5052410;28;20095;-88
2021/10/23 10:35:19;;;;;;;3.70;1.50;;;11.50;93.60;;;;;;5034587;28;20465;-86
2021/10/23 10:38:01;;;;;;;4.25;1.70;;;11.50;93.60;;;;;;5051220;28;20049;-85
2021/10/23 10:43:31;;;;;;;3.20;1.40;;;11.70;93.50;;;;;;5050331;28;20565;-84
2021/10/23 10:46:02;;;;;;;4.70;1.60;;;11.70;93.00;;;;;;5050278;28;20048;-84
2021/10/23 10:48:41;;;;;;;4.05;1.35;;;11.80;92.80;;;;;;5050221;28;20057;-83
2021/10/23 10:51:23;;;;;;;4.25;1.40;;;11.80;92.70;;;;;;5051236;28;20052;-84
2021/10/23 10:54:08;;;;;;;4.20;1.33;;;11.90;92.60;;;;;;5040784;28;20053;-82
2021/10/23 10:56:49;;;;;;;4.78;1.23;;;12.00;92.10;;;;;;5051332;28;20053;-85
2021/10/23 10:59:55;;;;;;;4.65;1.45;;;12.10;91.90;;;;;;5050299;28;20473;-84
2021/10/23 11:02:35;;;;;;;3.45;1.27;;;12.20;91.40;;;;;;5051629;28;20053;-83
2021/10/23 11:05:19;;;;;;;4.30;1.45;;;12.40;90.80;;;;;;5052266;28;20107;-84
2021/10/23 11:08:09;;;;;;;3.85;1.25;;;12.50;90.20;;;;;;5050814;28;20092;-85
2021/10/23 11:11:00;;;;;;;2.60;1.00;;;12.60;88.00;;;;;;5050819;28;20145;-84
2021/10/23 11:13:31;;;;;;;3.53;0.95;;;12.70;87.20;;;;;;5051172;28;20049;-86
2021/10/23 11:15:59;;;;;;;4.03;1.00;;;12.80;83.50;;;;;;5051156;28;20056;-85
2021/10/23 11:18:28;;;;;;;2.97;1.00;;;12.90;82.50;;;;;;5050681;28;20494;-88
2021/10/23 11:20:56;;;;;;;3.67;1.00;;;13.00;84.10;;;;;;5052075;28;20049;-88
2021/10/23 11:23:24;;;;;;;4.68;1.48;;;13.10;85.10;;;;;;5051475;28;20049;-88
2021/10/23 11:25:52;;;;;;;4.40;1.20;;;13.10;85.70;;;;;;5031711;28;20124;-87
2021/10/23 11:28:19;;;;;;;3.05;1.02;;;13.30;84.70;;;;;;5035433;28;20576;-88
2021/10/23 11:30:49;;;;;;;3.95;1.10;;;13.40;83.30;;;;;;5031710;28;20141;-87
2021/10/23 11:33:20;;;;;;;3.28;1.10;;;13.40;81.70;;;;;;5032223;28;20045;-87
2021/10/23 11:35:51;;;;;;;3.00;0.98;;;13.50;79.60;;;;;;5031578;28;20614;-86
2021/10/23 11:38:22;;;;;;;3.50;1.17;;;13.50;80.00;;;;;;5031152;28;20077;-86
2021/10/23 11:40:55;;;;;;;5.93;2.47;;;13.60;80.00;;;;;;5031745;28;20140;-86
2021/10/23 11:43:23;;;;;;;6.63;3.00;;;13.80;79.30;;;;;;5031534;28;20140;-85
2021/10/23 11:45:52;;;;;;;4.85;2.08;;;13.80;79.10;;;;;;5031431;28;20069;-86
2021/10/23 11:48:20;;;;;;;3.83;1.40;;;13.90;77.90;;;;;;5031760;28;20100;-85
2021/10/23 11:50:49;;;;;;;3.53;1.10;;;13.90;76.90;;;;;;5031101;28;20081;-88
2021/10/23 11:53:19;;;;;;;3.17;1.10;;;14.00;77.10;;;;;;5031435;28;20445;-88
2021/10/23 11:55:49;;;;;;;4.80;1.60;;;14.10;77.60;;;;;;5046055;28;20076;-81
2021/10/23 11:58:18;;;;;;;3.88;1.30;;;14.20;77.70;;;;;;5051233;28;20132;-79
2021/10/23 12:00:49;;;;;;;4.18;1.45;;;14.30;76.30;;;;;;5051761;28;20080;-88
2021/10/23 12:03:29;;;;;;;4.97;1.42;;;14.50;75.50;;;;;;5051239;28;20084;-85
2021/10/23 12:05:59;;;;;;;4.50;1.58;;;14.50;74.50;;;;;;5052698;28;20059;-87
2021/10/23 12:08:29;;;;;;;6.13;1.90;;;14.60;75.20;;;;;;5055260;28;20057;-88
2021/10/23 12:11:10;;;;;;;4.45;1.80;;;14.70;77.10;;;;;;5058172;28;20053;-88
2021/10/23 12:14:05;;;;;;;4.32;1.63;;;14.80;77.50;;;;;;5054967;28;20044;-87
2021/10/23 12:16:42;;;;;;;4.40;2.30;;;14.90;77.90;;;;;;5051853;28;20048;-85
2021/10/23 12:19:17;;;;;;;4.93;2.20;;;15.00;77.50;;;;;;5055151;28;20520;-87
2021/10/23 12:21:51;;;;;;;4.15;1.73;;;15.00;77.30;;;;;;5049327;28;20143;-84
2021/10/23 12:24:26;;;;;;;4.18;1.45;;;15.00;77.30;;;;;;5053701;28;20053;-83
2021/10/23 12:27:13;;;;;;;4.95;1.90;;;14.90;77.30;;;;;;5053397;28;20083;-83
2021/10/23 12:29:44;;;;;;;6.30;1.90;;;14.80;77.80;;;;;;5052071;28;20053;-84
2021/10/23 12:32:13;;;;;;;5.95;1.70;;;14.70;77.50;;;;;;5052542;28;20135;-83
2021/10/23 12:35:07;;;;;;;4.78;1.33;;;14.60;76.10;;;;;;5053848;28;20085;-84
2021/10/23 12:37:44;;;;;;;5.45;1.85;;;14.40;75.30;;;;;;5034696;28;20093;-87
2021/10/23 12:40:23;;;;;;;5.05;1.60;;;14.30;74.90;;;;;;5035894;28;20111;-84
2021/10/23 12:42:54;;;;;;;4.68;1.63;;;14.10;75.00;;;;;;5033763;28;20132;-84
2021/10/23 12:45:23;;;;;;;3.90;1.40;;;14.00;74.60;;;;;;5043557;28;20155;-87
2021/10/23 12:47:52;;;;;;;5.70;1.83;;;14.00;75.10;;;;;;5053834;28;20133;-85
2021/10/23 12:50:22;;;;;;;6.07;2.53;;;13.90;75.80;;;;;;5051771;28;20068;-85
2021/10/23 12:52:50;;;;;;;6.47;2.40;;;13.80;76.30;;;;;;5052387;28;20048;-84
2021/10/23 12:55:18;;;;;;;4.57;1.90;;;13.70;76.70;;;;;;5053215;28;20064;-84
2021/10/23 12:57:46;;;;;;;5.57;1.80;;;13.70;77.20;;;;;;5053733;28;20139;-83
2021/10/23 13:00:14;;;;;;;4.82;1.60;;;13.70;77.30;;;;;;5053761;28;20123;-85
2021/10/23 13:02:42;;;;;;;19.95;9.80;;;13.80;78.40;;;;;;5053495;28;20053;-84
2021/10/23 13:05:10;;;;;;;10.70;4.60;;;14.10;78.10;;;;;;5053740;28;20132;-85
2021/10/23 13:07:39;;;;;;;6.20;2.47;;;14.30;78.30;;;;;;5053144;28;20099;-84
2021/10/23 13:10:09;;;;;;;4.10;1.50;;;14.60;78.70;;;;;;5053606;28;20493;-84